Milford, MA (01757)

12:47 AM EDT on May 07, 2015 (GMT -0400)
Lucia and Clarridge Cir. | | Change Station
CLOSE
Current Station
Personal Weather Station
Location: Milford, MA
Elevation: 357 ft
Nearby Weather Stations

Elev 357 ft 42.17 °N, 71.53 °W | Updated 1 minute ago

Clear
Clear
53.6 °F
Feels Like 53.6 °F
N
0.0
Wind Variable Wind from WNW
Gusts 0.0 mph

Today
High -- | Low -- °F
--% Chance of Precip.
Yesterday
High -- | Low -- °F
Precip. -- in
5:34 AM 7:51 PM
Waning Gibbous, 90% visible
Pressure 30.22 in
Visibility 10.0 miles
Clouds Clear
Dew Point 35 °F
Humidity 50%
Rainfall 0.00 in
Snow Depth Not available.
UV 0 out of 12
Pollen 10.70 out of 12
Air Quality Not available.
Flu Activity Widespread
METAR KSFZ 070435Z 22003KT 10SM CLR 08/M02 A3022 RMK AO1

More Conditions Fewer Conditions

Pressure 30.22 in
Visibility 10.0 miles
Clouds Clear
Dew Point 35 °F
Humidity 50%
Rainfall 0.00 in
Snow Depth Not available.
UV 0 out of 12
Pollen 10.70 out of 12
Air Quality Not available.
Flu Activity Widespread
METAR KSFZ 070435Z 22003KT 10SM CLR 08/M02 A3022 RMK AO1

More Conditions Fewer Conditions

10-Day Weather Forecast

Almanac

Astronomy

May. 07, 2015 Rise Set
Actual Time
Civil Twilight
Nautical Twilight
Astronomical Twilight
Moon
Length of Visible Light
Length of Day
Tomorrow will be .
, % of the Moon is Illuminated

Today's Extremes

State Highs State Lows

Community

WunderPhotos

Upload Photos

1,819,121 photos uploaded!

WunderBlogs® & News

Nearby

Air Quality

  Air Quality AQ Index Pollutant
Not available.

Snow Depth

Station Depth Elevation

Earthquake Activity

City Distance Mag. Time & Date
Minimum magnitude displayed is 2.5.

Coastal Water Temperatures

Place Temperature

Stations

Nearby Weather Stations

Station Location Temp. Windchill Dew Point Humidity Wind Precip. Elev Updated Type